Time;durP1;ratioP1;P1;durP2;ratioP2;P2;SDS_P1;SDS_P2;PMS_P1;PMS_P2;Temp;Humidity;BMP_temperature;BMP_pressure;BME280_temperature;BME280_humidity;BME280_pressure;Samples;Min_cycle;Max_cycle;Signal;HPM_P1;HPM_P2
2023/01/28 00:00:35;;;;;;;5.67;5.03;;;1.30;99.90;;;;;;5005643;28;20566;-74
2023/01/28 00:03:01;;;;;;;7.82;4.47;;;1.30;99.90;;;;;;5007570;28;20041;-74
2023/01/28 00:05:28;;;;;;;5.80;5.20;;;1.30;99.90;;;;;;4976248;28;20042;-74
2023/01/28 00:07:55;;;;;;;5.63;5.03;;;1.30;99.90;;;;;;4992955;28;20038;-74
2023/01/28 00:10:20;;;;;;;6.03;5.07;;;1.30;99.90;;;;;;5011275;28;20510;-74
2023/01/28 00:12:46;;;;;;;6.80;4.90;;;1.30;99.90;;;;;;5005843;28;20052;-74
2023/01/28 00:15:13;;;;;;;5.50;4.87;;;1.30;99.90;;;;;;5012019;28;20421;-74
2023/01/28 00:17:38;;;;;;;5.63;4.70;;;1.30;99.90;;;;;;4996093;28;20041;-74
2023/01/28 00:20:05;;;;;;;5.93;5.33;;;1.30;99.90;;;;;;4996150;28;20270;-74
2023/01/28 00:22:31;;;;;;;7.32;5.18;;;1.30;99.90;;;;;;4992395;28;20399;-74
2023/01/28 00:24:58;;;;;;;5.55;4.95;;;1.30;99.90;;;;;;4996011;28;20497;-74
2023/01/28 00:27:23;;;;;;;5.97;4.68;;;1.30;99.90;;;;;;5011808;28;20048;-74
2023/01/28 00:29:49;;;;;;;5.00;4.43;;;1.30;99.90;;;;;;4995655;28;20041;-74
2023/01/28 00:32:15;;;;;;;5.87;4.57;;;1.30;99.90;;;;;;5011023;28;20072;-75
2023/01/28 00:34:41;;;;;;;5.30;4.80;;;1.30;99.90;;;;;;4977760;28;20035;-74
2023/01/28 00:37:06;;;;;;;8.20;4.90;;;1.30;99.90;;;;;;5012140;28;20129;-75
2023/01/28 00:39:32;;;;;;;6.00;5.13;;;1.30;99.90;;;;;;4996224;28;20331;-74
2023/01/28 00:41:58;;;;;;;6.33;4.73;;;1.30;99.90;;;;;;5010546;28;20049;-74
2023/01/28 00:44:23;;;;;;;7.07;4.80;;;1.30;99.90;;;;;;5011437;28;20042;-74
2023/01/28 00:46:49;;;;;;;8.97;5.00;;;1.30;99.90;;;;;;5011836;28;20058;-74
2023/01/28 00:49:15;;;;;;;6.60;4.13;;;1.30;99.90;;;;;;4994889;28;20119;-74
2023/01/28 00:51:41;;;;;;;5.70;4.00;;;1.30;99.90;;;;;;4992176;28;20120;-74
2023/01/28 00:54:07;;;;;;;4.90;4.35;;;1.30;99.90;;;;;;4994853;28;20556;-74
2023/01/28 00:56:33;;;;;;;6.43;4.57;;;1.30;99.90;;;;;;4995018;28;20033;-74
2023/01/28 00:58:58;;;;;;;5.97;5.00;;;1.30;99.90;;;;;;5009281;28;20045;-74
2023/01/28 01:01:26;;;;;;;5.33;4.37;;;1.30;99.90;;;;;;5004215;28;20041;-74
2023/01/28 01:04:01;;;;;;;5.93;4.50;;;1.30;99.90;;;;;;5011525;28;20042;-74
2023/01/28 01:06:31;;;;;;;5.13;4.50;;;1.30;99.90;;;;;;5012063;28;20042;-74
2023/01/28 01:08:57;;;;;;;6.63;4.70;;;1.30;99.90;;;;;;5011299;28;20507;-74
2023/01/28 01:11:23;;;;;;;5.63;4.93;;;1.30;99.90;;;;;;4995267;28;20052;-74
2023/01/28 01:13:55;;;;;;;6.30;5.25;;;1.30;99.90;;;;;;5009353;28;20041;-74
2023/01/28 01:16:28;;;;;;;6.07;5.00;;;1.30;99.90;;;;;;4991323;28;20065;-74
2023/01/28 01:18:55;;;;;;;6.20;5.03;;;1.30;99.90;;;;;;5007921;28;20443;-74
2023/01/28 01:21:24;;;;;;;5.70;5.10;;;1.30;99.90;;;;;;4991828;28;20140;-74
2023/01/28 01:23:50;;;;;;;6.30;5.00;;;1.30;99.90;;;;;;5008681;28;20104;-74
2023/01/28 01:26:17;;;;;;;7.13;5.45;;;1.30;99.90;;;;;;4991562;28;20100;-74
2023/01/28 01:28:43;;;;;;;5.70;4.88;;;1.30;99.90;;;;;;4991726;28;20053;-74
2023/01/28 01:31:14;;;;;;;5.15;4.65;;;1.30;99.90;;;;;;4991633;28;20041;-74
2023/01/28 01:33:41;;;;;;;5.53;4.63;;;1.30;99.90;;;;;;4991098;28;20045;-74
2023/01/28 01:36:08;;;;;;;7.88;5.43;;;1.30;99.90;;;;;;4991880;28;20049;-74
2023/01/28 01:38:35;;;;;;;6.53;4.70;;;1.30;99.90;;;;;;4991781;28;20041;-74
2023/01/28 01:41:01;;;;;;;6.22;4.85;;;1.30;99.90;;;;;;5008474;28;20136;-74
2023/01/28 01:43:49;;;;;;;6.75;4.95;;;1.30;99.90;;;;;;4991707;28;20063;-74
2023/01/28 01:46:18;;;;;;;6.07;4.85;;;1.30;99.90;;;;;;4990637;28;20568;-74
2023/01/28 01:48:44;;;;;;;6.63;4.13;;;1.30;99.90;;;;;;5007798;28;20049;-74
2023/01/28 01:51:14;;;;;;;6.35;4.47;;;1.30;99.90;;;;;;5007732;28;20049;-74
2023/01/28 01:53:44;;;;;;;6.30;4.53;;;1.30;99.90;;;;;;5007768;28;20089;-74
2023/01/28 01:56:14;;;;;;;5.78;4.45;;;1.30;99.90;;;;;;5007517;28;20356;-74
2023/01/28 01:58:42;;;;;;;5.95;4.80;;;1.30;99.90;;;;;;4990282;28;20038;-74
2023/01/28 02:01:08;;;;;;;5.90;5.30;;;1.30;99.90;;;;;;4974785;28;20046;-74
2023/01/28 02:04:17;;;;;;;6.30;5.07;;;1.30;99.90;;;;;;4991790;28;20052;-74
2023/01/28 02:06:44;;;;;;;6.72;5.10;;;1.30;99.90;;;;;;4997447;28;20296;-74
2023/01/28 02:09:23;;;;;;;7.25;4.65;;;1.30;99.90;;;;;;5006508;28;20045;-74
2023/01/28 02:11:52;;;;;;;4.97;3.97;;;1.30;99.90;;;;;;5007278;28;20052;-74
2023/01/28 02:14:18;;;;;;;5.10;4.22;;;1.30;99.90;;;;;;5007332;28;20049;-74
2023/01/28 02:16:44;;;;;;;4.75;3.97;;;1.30;99.90;;;;;;5006548;28;20073;-74
2023/01/28 02:19:11;;;;;;;4.37;3.97;;;1.30;99.90;;;;;;4990421;28;20034;-74
2023/01/28 02:21:43;;;;;;;5.05;4.07;;;1.30;99.90;;;;;;4991073;28;20117;-74
2023/01/28 02:24:36;;;;;;;5.20;3.78;;;1.30;99.90;;;;;;5006922;28;20045;-75
2023/01/28 02:27:21;;;;;;;4.07;3.47;;;1.30;99.90;;;;;;5007304;28;20037;-74
2023/01/28 02:30:16;;;;;;;4.38;3.78;;;1.30;99.90;;;;;;5006110;28;20054;-74
2023/01/28 02:32:59;;;;;;;7.07;4.47;;;1.30;99.90;;;;;;5004172;28;20046;-74
2023/01/28 02:35:38;;;;;;;5.97;4.65;;;1.30;99.90;;;;;;5007389;28;20099;-74
2023/01/28 02:38:25;;;;;;;7.55;5.10;;;1.30;99.90;;;;;;4989518;28;20046;-74
2023/01/28 02:41:08;;;;;;;5.43;4.13;;;1.30;99.90;;;;;;5008793;28;20116;-74
2023/01/28 02:43:36;;;;;;;5.60;4.40;;;1.30;99.90;;;;;;5006912;28;20362;-74
2023/01/28 02:49:16;;;;;;;6.47;4.55;;;1.30;99.90;;;;;;5006099;28;20045;-74
2023/01/28 02:52:01;;;;;;;5.93;4.50;;;1.30;99.90;;;;;;4989836;28;20049;-74
2023/01/28 02:54:26;;;;;;;5.20;4.60;;;1.30;99.90;;;;;;5006490;28;20068;-74
2023/01/28 02:57:00;;;;;;;4.93;4.40;;;1.20;99.90;;;;;;5006433;28;20506;-74
2023/01/28 02:59:35;;;;;;;7.20;5.07;;;1.20;99.90;;;;;;5006135;28;20037;-74
2023/01/28 03:02:10;;;;;;;5.00;4.32;;;1.20;99.90;;;;;;5005932;28;20165;-74
2023/01/28 03:04:54;;;;;;;5.82;4.57;;;1.20;99.90;;;;;;5007288;28;20042;-74
2023/01/28 03:07:22;;;;;;;6.18;4.35;;;1.20;99.90;;;;;;5002276;28;20113;-74
2023/01/28 03:09:50;;;;;;;5.50;4.90;;;1.20;99.90;;;;;;5006890;28;20699;-74
2023/01/28 03:38:57;;;;;;;6.53;3.88;;;1.10;99.90;;;;;;5004993;28;20348;-74
2023/01/28 03:41:25;;;;;;;5.17;4.10;;;1.20;99.90;;;;;;5007670;28;20178;-74
2023/01/28 03:43:52;;;;;;;4.28;3.67;;;1.20;99.90;;;;;;4989811;28;20077;-74
2023/01/28 03:46:18;;;;;;;4.60;3.85;;;1.10;99.90;;;;;;4989780;28;20117;-74
2023/01/28 03:48:44;;;;;;;5.03;4.05;;;1.10;99.90;;;;;;5004933;28;20403;-74
2023/01/28 03:51:10;;;;;;;5.78;4.20;;;1.20;99.90;;;;;;5005362;28;20046;-74
2023/01/28 03:53:38;;;;;;;6.55;4.43;;;1.20;99.90;;;;;;5005620;28;20061;-74
2023/01/28 03:56:04;;;;;;;5.43;4.30;;;1.20;99.90;;;;;;5005507;28;20049;-74
2023/01/28 04:01:14;;;;;;;7.18;4.38;;;1.20;99.90;;;;;;4989405;28;20363;-74
2023/01/28 04:03:39;;;;;;;5.35;4.30;;;1.20;99.90;;;;;;4970916;28;20038;-74
2023/01/28 04:06:08;;;;;;;4.90;4.30;;;1.20;99.90;;;;;;5005853;28;20135;-74
2023/01/28 04:08:33;;;;;;;5.45;4.35;;;1.10;99.90;;;;;;5005744;28;20050;-74
2023/01/28 04:11:14;;;;;;;6.13;4.37;;;1.20;99.90;;;;;;5005049;28;20042;-74
2023/01/28 04:13:43;;;;;;;5.38;4.32;;;1.20;99.90;;;;;;4988724;28;20344;-74
2023/01/28 04:16:11;;;;;;;5.63;4.18;;;1.10;99.90;;;;;;5005847;28;20128;-74
2023/01/28 04:18:37;;;;;;;7.18;4.85;;;1.10;99.90;;;;;;4988800;28;20049;-74
2023/01/28 04:21:03;;;;;;;6.50;5.00;;;1.10;99.90;;;;;;5004942;28;20168;-74
2023/01/28 04:23:29;;;;;;;6.30;5.00;;;1.10;99.90;;;;;;4970898;28;20046;-74
2023/01/28 04:25:55;;;;;;;8.98;5.43;;;1.10;99.90;;;;;;4989738;28;20053;-74
2023/01/28 04:28:20;;;;;;;5.73;4.77;;;1.10;99.90;;;;;;5005363;28;20042;-74
2023/01/28 04:30:46;;;;;;;5.93;4.30;;;1.10;99.90;;;;;;5004716;28;20057;-74
2023/01/28 04:33:12;;;;;;;5.77;4.50;;;1.10;99.90;;;;;;5005036;28;20060;-74
2023/01/28 04:35:38;;;;;;;6.70;4.33;;;1.10;99.90;;;;;;5005474;28;20052;-74
2023/01/28 04:38:03;;;;;;;11.40;5.47;;;1.00;99.90;;;;;;5005297;28;20212;-74
2023/01/28 04:40:29;;;;;;;6.80;5.13;;;1.00;99.90;;;;;;4991019;28;20038;-74
2023/01/28 04:42:56;;;;;;;7.17;5.63;;;1.00;99.90;;;;;;5005112;28;20038;-74
2023/01/28 04:45:22;;;;;;;6.68;5.18;;;1.00;99.90;;;;;;5005243;28;20049;-74
2023/01/28 04:47:48;;;;;;;8.02;6.10;;;1.00;99.90;;;;;;5004837;28;20038;-74
2023/01/28 04:50:14;;;;;;;8.33;5.50;;;1.00;99.90;;;;;;4992092;28;20530;-75
2023/01/28 04:52:41;;;;;;;6.93;5.50;;;1.00;99.90;;;;;;5008396;28;20545;-74
2023/01/28 04:55:07;;;;;;;6.60;5.03;;;1.00;99.90;;;;;;5005621;28;20073;-74
2023/01/28 04:57:33;;;;;;;9.73;5.93;;;1.00;99.90;;;;;;4990395;28;20430;-74
2023/01/28 04:59:58;;;;;;;6.83;5.47;;;1.00;99.90;;;;;;5001990;28;20125;-74
2023/01/28 05:02:24;;;;;;;7.50;5.67;;;1.00;99.90;;;;;;4992076;28;20037;-74
2023/01/28 05:04:50;;;;;;;7.93;6.07;;;1.00;99.90;;;;;;5009150;28;20042;-74
2023/01/28 05:07:15;;;;;;;6.37;5.10;;;1.00;99.90;;;;;;4975309;28;20483;-74
2023/01/28 05:09:41;;;;;;;5.90;4.73;;;1.00;99.90;;;;;;4992221;28;20041;-74
2023/01/28 05:12:07;;;;;;;7.43;5.40;;;1.00;99.90;;;;;;5008031;28;20137;-74
2023/01/28 05:14:32;;;;;;;6.63;4.90;;;1.00;99.90;;;;;;5008409;28;20461;-74
2023/01/28 05:16:58;;;;;;;7.60;5.60;;;1.00;99.90;;;;;;5008197;28;20046;-74
2023/01/28 05:19:24;;;;;;;6.70;4.87;;;0.90;99.90;;;;;;4992217;28;20042;-74
2023/01/28 05:21:50;;;;;;;6.77;4.97;;;1.00;99.90;;;;;;4992149;28;20054;-74
2023/01/28 05:24:15;;;;;;;6.67;4.97;;;0.90;99.90;;;;;;4991362;28;20033;-74
2023/01/28 05:26:41;;;;;;;7.83;5.47;;;0.90;99.90;;;;;;4997246;28;20095;-74
2023/01/28 05:29:07;;;;;;;6.40;4.97;;;0.90;99.90;;;;;;4986300;28;20045;-74
2023/01/28 05:31:33;;;;;;;9.80;5.30;;;0.90;99.90;;;;;;5007558;28;20538;-74
2023/01/28 05:33:59;;;;;;;7.00;5.27;;;0.90;99.90;;;;;;5008224;28;20319;-74
2023/01/28 05:36:24;;;;;;;8.83;5.77;;;0.90;99.90;;;;;;4992743;28;20038;-74
2023/01/28 05:38:50;;;;;;;7.47;5.50;;;0.90;99.90;;;;;;4991167;28;20037;-74
2023/01/28 05:41:17;;;;;;;6.43;5.10;;;0.90;99.90;;;;;;4988549;28;20042;-74
2023/01/28 05:43:42;;;;;;;6.47;5.10;;;0.90;99.90;;;;;;5008535;28;20117;-74
2023/01/28 05:46:08;;;;;;;7.47;5.47;;;0.80;99.90;;;;;;4992320;28;20776;-74
2023/01/28 05:48:34;;;;;;;8.00;5.47;;;0.80;99.90;;;;;;4995648;28;20097;-74
2023/01/28 05:51:00;;;;;;;7.90;5.27;;;0.80;99.90;;;;;;5008590;28;20741;-74
2023/01/28 05:53:26;;;;;;;8.25;5.82;;;0.80;99.90;;;;;;5008500;28;20061;-74
2023/01/28 05:55:52;;;;;;;6.70;5.03;;;0.80;99.90;;;;;;4991821;28;20045;-74
2023/01/28 05:58:19;;;;;;;8.23;5.40;;;0.80;99.90;;;;;;4975099;28;20038;-74
2023/01/28 06:00:45;;;;;;;7.20;5.50;;;0.80;99.90;;;;;;4990597;28;20394;-74
2023/01/28 06:03:11;;;;;;;7.90;5.73;;;0.80;99.90;;;;;;4976600;28;20121;-74
2023/01/28 06:05:37;;;;;;;8.10;5.68;;;0.80;99.90;;;;;;4991792;28;20049;-74
2023/01/28 06:08:03;;;;;;;9.40;5.53;;;0.80;99.90;;;;;;5008250;28;20053;-74
2023/01/28 06:10:29;;;;;;;7.75;6.10;;;0.70;99.90;;;;;;5007725;28;20077;-74
2023/01/28 06:12:55;;;;;;;7.63;6.07;;;0.70;99.90;;;;;;4992384;28;20084;-74
2023/01/28 06:15:21;;;;;;;6.73;5.57;;;0.70;99.90;;;;;;5007701;28;20045;-74
2023/01/28 06:17:46;;;;;;;7.68;5.93;;;0.70;99.90;;;;;;5007493;28;20050;-74
2023/01/28 06:20:12;;;;;;;8.00;5.90;;;0.70;99.90;;;;;;5007552;28;20037;-74
2023/01/28 06:22:38;;;;;;;8.53;5.87;;;0.70;99.90;;;;;;4975504;28;20045;-74
2023/01/28 06:25:04;;;;;;;8.27;6.33;;;0.70;99.90;;;;;;5008029;28;20058;-74
2023/01/28 06:27:30;;;;;;;10.90;6.43;;;0.70;99.90;;;;;;5007639;28;20038;-74
2023/01/28 06:29:56;;;;;;;10.80;6.80;;;0.70;99.90;;;;;;5008149;28;20379;-74
2023/01/28 06:32:21;;;;;;;8.17;5.97;;;0.70;99.90;;;;;;4989669;28;20060;-74
2023/01/28 06:34:47;;;;;;;9.60;6.67;;;0.70;99.90;;;;;;5007691;28;20046;-74
2023/01/28 06:37:14;;;;;;;12.77;7.17;;;0.70;99.90;;;;;;4990780;28;20041;-74
2023/01/28 06:39:40;;;;;;;8.68;6.68;;;0.70;99.90;;;;;;5009294;28;20445;-74
2023/01/28 06:42:05;;;;;;;9.33;6.90;;;0.60;99.90;;;;;;4997778;28;20030;-74
2023/01/28 06:44:31;;;;;;;12.07;7.30;;;0.60;99.90;;;;;;4990905;28;20443;-74
2023/01/28 06:46:57;;;;;;;9.67;7.07;;;0.60;99.90;;;;;;4971256;28;20285;-74
2023/01/28 06:49:23;;;;;;;10.53;7.37;;;0.60;99.90;;;;;;5006214;28;20115;-74
2023/01/28 06:51:49;;;;;;;8.47;6.60;;;0.60;99.90;;;;;;5006548;28;20045;-74
2023/01/28 06:54:15;;;;;;;10.13;7.33;;;0.50;99.90;;;;;;5006675;28;20409;-74
2023/01/28 06:56:40;;;;;;;8.57;6.63;;;0.50;99.90;;;;;;5007140;28;20385;-74
2023/01/28 06:59:06;;;;;;;8.30;6.47;;;0.40;99.90;;;;;;5006894;28;20038;-72
2023/01/28 07:01:32;;;;;;;9.17;6.97;;;0.30;99.90;;;;;;5006672;28;20038;-72
2023/01/28 07:03:58;;;;;;;8.73;6.55;;;0.20;99.90;;;;;;4990769;28;20053;-72
2023/01/28 07:06:24;;;;;;;8.63;6.37;;;0.00;99.90;;;;;;5006746;28;20498;-72
2023/01/28 07:08:50;;;;;;;10.20;7.13;;;-0.10;99.90;;;;;;4990369;28;20042;-72
2023/01/28 07:11:16;;;;;;;11.17;8.17;;;-0.20;99.90;;;;;;5005882;28;20046;-72
2023/01/28 07:13:42;;;;;;;9.55;7.07;;;-0.30;99.90;;;;;;4989479;28;20042;-72
2023/01/28 07:16:08;;;;;;;9.95;7.18;;;-0.40;99.90;;;;;;5006428;28;20056;-72
2023/01/28 07:18:34;;;;;;;10.48;7.25;;;-0.50;99.90;;;;;;4973088;28;20076;-72
2023/01/28 07:21:00;;;;;;;12.63;7.13;;;-0.50;99.90;;;;;;4969670;28;20034;-72
2023/01/28 07:23:25;;;;;;;9.60;7.33;;;-0.60;99.90;;;;;;5003158;28;20029;-72
2023/01/28 07:25:51;;;;;;;11.33;7.90;;;-0.70;99.90;;;;;;5006145;28;20045;-72
2023/01/28 07:28:20;;;;;;;10.30;7.97;;;-0.80;99.90;;;;;;4989381;28;20050;-73
2023/01/28 07:30:48;;;;;;;11.40;7.57;;;-0.90;99.90;;;;;;4989681;28;20638;-73
2023/01/28 07:33:14;;;;;;;11.75;7.63;;;-1.00;99.90;;;;;;5005024;28;20410;-73
2023/01/28 07:35:40;;;;;;;14.13;9.37;;;-1.00;99.90;;;;;;5005753;28;20041;-73
2023/01/28 07:38:05;;;;;;;12.37;9.13;;;-1.10;99.90;;;;;;4973409;28;20044;-73
2023/01/28 07:40:31;;;;;;;13.73;7.63;;;-1.10;99.90;;;;;;4972203;28;20034;-73
2023/01/28 07:42:57;;;;;;;12.67;7.93;;;-1.10;99.90;;;;;;4989070;28;20490;-72
2023/01/28 07:45:24;;;;;;;11.20;8.23;;;-1.10;99.90;;;;;;5003792;28;20042;-72
2023/01/28 07:47:57;;;;;;;14.05;8.32;;;-1.10;99.90;;;;;;5004829;28;20041;-72
2023/01/28 07:50:24;;;;;;;11.30;8.13;;;-1.20;99.90;;;;;;5014164;28;20042;-72
2023/01/28 07:52:50;;;;;;;12.88;8.57;;;-1.20;99.90;;;;;;4989467;28;20581;-72
2023/01/28 07:55:16;;;;;;;11.30;7.83;;;-1.20;99.90;;;;;;5005910;28;20148;-72
2023/01/28 07:57:53;;;;;;;12.50;8.52;;;-1.20;99.90;;;;;;5004694;28;20394;-72
2023/01/28 08:00:21;;;;;;;12.48;8.25;;;-1.30;99.90;;;;;;4994381;28;20565;-72
2023/01/28 08:02:47;;;;;;;12.80;8.45;;;-1.30;99.90;;;;;;4987650;28;20256;-72
2023/01/28 08:05:17;;;;;;;11.52;8.32;;;-1.30;99.90;;;;;;5005391;28;20045;-72
2023/01/28 08:07:44;;;;;;;15.88;9.55;;;-1.30;99.90;;;;;;4977399;28;20046;-72
2023/01/28 08:10:11;;;;;;;14.32;8.30;;;-1.30;99.90;;;;;;5005536;28;20045;-72
2023/01/28 08:12:38;;;;;;;16.23;9.10;;;-1.20;99.90;;;;;;5006251;28;20048;-72
2023/01/28 08:15:04;;;;;;;13.48;9.15;;;-1.20;99.90;;;;;;4990451;28;20099;-74
2023/01/28 08:17:30;;;;;;;14.10;8.88;;;-1.10;99.90;;;;;;4990062;28;20530;-75
2023/01/28 08:19:56;;;;;;;14.20;9.35;;;-1.10;99.90;;;;;;5006322;28;20482;-75
2023/01/28 08:22:26;;;;;;;13.53;9.17;;;-1.00;99.90;;;;;;5002473;28;20064;-75
2023/01/28 08:24:52;;;;;;;13.68;9.18;;;-1.00;99.90;;;;;;5010497;28;20338;-74
2023/01/28 08:27:18;;;;;;;14.93;9.43;;;-1.00;99.90;;;;;;4993776;28;20502;-74
2023/01/28 08:29:44;;;;;;;14.30;9.60;;;-0.90;99.90;;;;;;5010881;28;20041;-74
2023/01/28 08:32:10;;;;;;;17.17;9.93;;;-0.90;99.90;;;;;;4991798;28;20042;-74
2023/01/28 08:34:35;;;;;;;16.00;9.80;;;-0.90;99.90;;;;;;5007580;28;20033;-74
2023/01/28 08:37:01;;;;;;;17.00;10.27;;;-0.80;99.90;;;;;;5006547;28;20498;-75
2023/01/28 08:39:27;;;;;;;15.13;10.02;;;-0.80;99.90;;;;;;5009130;28;20581;-74
2023/01/28 08:41:53;;;;;;;15.03;10.27;;;-0.80;99.90;;;;;;4992005;28;20030;-73
2023/01/28 08:44:18;;;;;;;14.77;9.67;;;-0.70;99.90;;;;;;4991903;28;20034;-73
2023/01/28 08:46:44;;;;;;;16.67;9.90;;;-0.60;99.90;;;;;;4971570;28;20084;-73
2023/01/28 08:49:10;;;;;;;14.77;10.13;;;-0.60;99.90;;;;;;5002266;28;20385;-73
2023/01/28 08:51:35;;;;;;;13.57;8.90;;;-0.50;99.90;;;;;;4991074;28;20042;-73
2023/01/28 08:54:01;;;;;;;14.33;9.30;;;-0.50;99.90;;;;;;4989243;28;20058;-73
2023/01/28 08:56:27;;;;;;;15.23;9.63;;;-0.50;99.90;;;;;;5001777;28;20099;-73
2023/01/28 08:58:53;;;;;;;14.53;8.93;;;-0.50;99.90;;;;;;4972721;28;20089;-73
2023/01/28 09:01:18;;;;;;;13.30;9.03;;;-0.40;99.90;;;;;;4983314;28;20549;-73
2023/01/28 09:03:44;;;;;;;12.57;8.93;;;-0.30;99.90;;;;;;5003606;28;20046;-73
2023/01/28 09:06:10;;;;;;;14.43;8.43;;;-0.20;99.90;;;;;;4989276;28;20038;-73
2023/01/28 09:08:36;;;;;;;14.30;8.33;;;-0.20;99.90;;;;;;5002850;28;20149;-73
2023/01/28 09:11:01;;;;;;;14.40;9.07;;;0.00;99.90;;;;;;4988668;28;20053;-73
2023/01/28 09:13:28;;;;;;;15.57;8.97;;;0.00;99.90;;;;;;4974172;28;20042;-74
2023/01/28 09:15:54;;;;;;;12.60;8.68;;;0.10;99.90;;;;;;5002609;28;20080;-74
2023/01/28 09:18:20;;;;;;;15.27;8.55;;;0.10;99.90;;;;;;5001721;28;20081;-74
2023/01/28 09:20:46;;;;;;;12.77;8.43;;;0.10;99.90;;;;;;5005325;28;20084;-74
2023/01/28 09:23:13;;;;;;;14.87;8.73;;;0.10;99.90;;;;;;4985601;28;20046;-73
2023/01/28 09:25:38;;;;;;;13.85;8.90;;;0.10;99.90;;;;;;5008396;28;20052;-73
2023/01/28 09:28:04;;;;;;;14.03;8.57;;;0.10;99.90;;;;;;5003925;28;20046;-73
2023/01/28 09:30:30;;;;;;;14.83;9.30;;;0.20;99.90;;;;;;5004911;28;20076;-73
2023/01/28 09:32:57;;;;;;;13.90;9.03;;;0.30;99.90;;;;;;5004940;28;20048;-73
2023/01/28 09:35:23;;;;;;;11.90;7.97;;;0.40;99.90;;;;;;5005236;28;20037;-73
2023/01/28 09:37:50;;;;;;;16.03;8.43;;;0.50;99.90;;;;;;5005708;28;20120;-72
2023/01/28 09:40:20;;;;;;;13.48;8.35;;;0.70;99.90;;;;;;4989263;28;20908;-73
2023/01/28 09:43:08;;;;;;;12.63;8.32;;;0.80;99.90;;;;;;5002323;28;20044;-74
2023/01/28 09:45:40;;;;;;;12.02;8.40;;;1.00;99.90;;;;;;5005924;28;20037;-73
2023/01/28 09:48:13;;;;;;;11.23;7.90;;;1.20;99.90;;;;;;4990207;28;20378;-73
2023/01/28 09:50:44;;;;;;;11.23;7.88;;;1.40;99.90;;;;;;4989752;28;20037;-73
2023/01/28 09:53:12;;;;;;;12.55;8.05;;;1.70;99.90;;;;;;5007642;28;20139;-73
2023/01/28 09:55:43;;;;;;;12.52;8.15;;;1.90;99.90;;;;;;5007767;28;20046;-73
2023/01/28 09:58:15;;;;;;;10.40;7.35;;;2.00;99.90;;;;;;5000507;28;20045;-73
2023/01/28 10:01:04;;;;;;;10.57;7.50;;;2.10;99.90;;;;;;4990797;28;20088;-73
2023/01/28 10:03:54;;;;;;;15.13;9.80;;;2.30;99.90;;;;;;4998208;28;20044;-73
2023/01/28 10:06:25;;;;;;;10.48;7.60;;;2.40;99.90;;;;;;4995518;28;20584;-72
2023/01/28 10:09:09;;;;;;;12.10;8.50;;;2.50;99.90;;;;;;5003448;28;20042;-73
2023/01/28 10:11:59;;;;;;;10.93;7.50;;;2.60;99.90;;;;;;5014523;28;20103;-73
2023/01/28 10:14:35;;;;;;;9.35;6.63;;;2.60;99.90;;;;;;4981650;28;20393;-73
2023/01/28 10:17:33;;;;;;;10.18;8.25;;;2.70;99.90;;;;;;4990194;28;20108;-73
2023/01/28 10:20:16;;;;;;;11.15;7.30;;;2.80;99.90;;;;;;4998539;28;20095;-73
2023/01/28 10:22:57;;;;;;;10.35;7.68;;;2.80;99.90;;;;;;5009419;28;20045;-73
2023/01/28 10:25:29;;;;;;;11.05;7.95;;;2.80;99.90;;;;;;5002576;28;20042;-73
2023/01/28 10:27:55;;;;;;;10.32;7.07;;;3.00;99.90;;;;;;4989194;28;20778;-73
2023/01/28 10:30:28;;;;;;;11.00;7.80;;;3.20;99.90;;;;;;4998923;28;20042;-73
2023/01/28 10:33:04;;;;;;;10.13;8.02;;;3.40;99.90;;;;;;5013169;28;20085;-72
2023/01/28 10:35:40;;;;;;;10.75;6.90;;;3.50;99.90;;;;;;5001031;28;20052;-73
2023/01/28 10:38:09;;;;;;;11.43;8.00;;;3.60;99.90;;;;;;4990089;28;20038;-73
2023/01/28 10:40:35;;;;;;;12.45;8.50;;;3.60;99.90;;;;;;5003273;28;20037;-73
2023/01/28 10:43:02;;;;;;;12.55;7.78;;;3.60;99.90;;;;;;5004200;28;20053;-73
2023/01/28 10:45:33;;;;;;;11.73;8.00;;;3.60;99.90;;;;;;4990995;28;20046;-74
2023/01/28 10:48:06;;;;;;;11.32;7.40;;;3.60;99.90;;;;;;5002890;28;20477;-73
2023/01/28 10:50:34;;;;;;;9.85;6.60;;;3.60;99.90;;;;;;5003297;28;20069;-73
2023/01/28 10:53:02;;;;;;;10.52;8.05;;;3.70;99.90;;;;;;5003406;28;20084;-73
2023/01/28 10:55:50;;;;;;;12.70;7.10;;;3.80;99.90;;;;;;5005720;28;20041;-73
2023/01/28 10:58:29;;;;;;;9.25;6.63;;;3.90;99.90;;;;;;4990251;28;20157;-73
2023/01/28 11:01:06;;;;;;;10.57;7.70;;;4.00;99.90;;;;;;5013890;28;20041;-73
2023/01/28 11:03:34;;;;;;;10.70;7.57;;;4.00;99.90;;;;;;5018477;28;20042;-73
2023/01/28 11:06:01;;;;;;;10.30;7.05;;;4.00;99.90;;;;;;5002834;28;20154;-73
2023/01/28 11:08:29;;;;;;;9.30;6.95;;;4.00;99.90;;;;;;5002382;28;20132;-73
2023/01/28 11:10:56;;;;;;;10.85;8.65;;;3.90;99.90;;;;;;5007002;28;20045;-73
2023/01/28 11:13:24;;;;;;;12.55;7.57;;;3.90;99.90;;;;;;5024645;28;20043;-73
2023/01/28 11:16:05;;;;;;;12.32;8.02;;;3.90;99.90;;;;;;5010839;28;20045;-73
2023/01/28 11:18:33;;;;;;;8.75;6.50;;;3.90;99.90;;;;;;4994998;28;20054;-73
2023/01/28 11:21:06;;;;;;;10.02;6.97;;;3.90;99.90;;;;;;4999450;28;20038;-73
2023/01/28 11:23:37;;;;;;;13.63;8.35;;;3.90;99.90;;;;;;5010107;28;20042;-73
2023/01/28 11:26:17;;;;;;;9.18;6.57;;;4.00;99.90;;;;;;5005267;28;20038;-73
2023/01/28 11:28:43;;;;;;;13.02;8.95;;;4.00;99.90;;;;;;5002498;28;20046;-74
2023/01/28 11:31:13;;;;;;;11.55;9.23;;;4.00;99.90;;;;;;5006635;28;20491;-73
2023/01/28 11:33:44;;;;;;;10.85;8.05;;;4.00;99.90;;;;;;4986173;28;20038;-73
2023/01/28 11:36:24;;;;;;;12.65;8.20;;;4.00;99.90;;;;;;5006444;28;20449;-74
2023/01/28 11:38:59;;;;;;;9.65;7.35;;;4.00;99.90;;;;;;5005864;28;20098;-74
2023/01/28 11:41:29;;;;;;;12.73;6.85;;;4.00;99.90;;;;;;5006631;28;20084;-74
2023/01/28 11:43:57;;;;;;;10.55;5.95;;;4.00;99.90;;;;;;5005094;28;20490;-73
2023/01/28 11:46:55;;;;;;;11.90;7.05;;;3.90;99.90;;;;;;4988309;28;20038;-73
2023/01/28 11:49:24;;;;;;;10.23;6.35;;;3.90;99.90;;;;;;4993486;28;20387;-73
2023/01/28 11:52:14;;;;;;;10.02;6.93;;;3.90;99.90;;;;;;5007418;28;20042;-73
2023/01/28 11:55:01;;;;;;;10.85;8.20;;;3.90;99.90;;;;;;5004450;28;20069;-73
2023/01/28 11:57:50;;;;;;;14.73;8.52;;;4.00;99.90;;;;;;4984011;28;20081;-73
2023/01/28 12:00:48;;;;;;;13.00;7.68;;;4.20;99.90;;;;;;4992388;28;20042;-73
2023/01/28 12:03:45;;;;;;;10.95;7.28;;;4.40;99.90;;;;;;5004205;28;20348;-73
2023/01/28 12:06:20;;;;;;;10.90;6.93;;;4.60;99.90;;;;;;4977088;28;20061;-73
2023/01/28 12:09:06;;;;;;;11.95;7.28;;;4.70;99.90;;;;;;5005568;28;20169;-73
2023/01/28 12:12:10;;;;;;;9.23;6.75;;;4.80;99.90;;;;;;4997129;28;20045;-73
2023/01/28 12:15:07;;;;;;;12.48;6.35;;;4.80;99.90;;;;;;5005701;28;20068;-73
2023/01/28 12:17:59;;;;;;;10.85;6.13;;;4.60;99.90;;;;;;5006154;28;20045;-73
2023/01/28 12:20:37;;;;;;;11.48;6.88;;;4.50;99.90;;;;;;5002489;28;20103;-73
2023/01/28 12:23:29;;;;;;;11.10;6.43;;;4.30;99.90;;;;;;5006704;28;20042;-73
2023/01/28 12:26:25;;;;;;;9.50;6.53;;;4.20;99.90;;;;;;5019353;28;20125;-72
2023/01/28 12:29:16;;;;;;;10.90;6.53;;;4.10;99.90;;;;;;5003511;28;20045;-73
2023/01/28 12:31:42;;;;;;;11.85;8.02;;;3.90;99.90;;;;;;4989400;28;20042;-73
2023/01/28 12:34:43;;;;;;;11.53;6.00;;;3.90;99.90;;;;;;4987078;28;20208;-73
2023/01/28 12:37:26;;;;;;;11.45;7.38;;;4.00;99.90;;;;;;5002441;28;20068;-73
2023/01/28 12:40:09;;;;;;;10.05;7.00;;;4.00;99.90;;;;;;5017951;28;20049;-73
2023/01/28 12:42:41;;;;;;;12.38;6.22;;;4.10;99.90;;;;;;4994997;28;20042;-72
2023/01/28 12:45:44;;;;;;;13.73;7.63;;;4.10;99.90;;;;;;5004904;28;20038;-73
2023/01/28 12:48:20;;;;;;;10.65;6.70;;;4.10;99.90;;;;;;5000933;28;20038;-73
2023/01/28 12:51:14;;;;;;;10.60;6.10;;;4.00;99.90;;;;;;5005184;28;20141;-73
2023/01/28 12:53:54;;;;;;;11.77;7.10;;;4.10;99.90;;;;;;5004290;28;20046;-73
2023/01/28 12:56:35;;;;;;;12.68;6.70;;;4.30;99.90;;;;;;4999100;28;20057;-73
2023/01/28 12:59:15;;;;;;;11.35;6.32;;;4.40;99.90;;;;;;5004140;28;20054;-73
2023/01/28 13:01:48;;;;;;;11.05;6.47;;;4.50;99.90;;;;;;5005417;28;20100;-73
2023/01/28 13:04:20;;;;;;;11.43;6.72;;;4.50;99.90;;;;;;5006490;28;20041;-73
2023/01/28 13:06:58;;;;;;;9.65;5.35;;;4.60;99.90;;;;;;5003797;28;20050;-73
2023/01/28 13:09:25;;;;;;;11.10;5.97;;;4.60;99.90;;;;;;5004836;28;20050;-73
2023/01/28 13:11:55;;;;;;;9.18;4.95;;;4.70;99.90;;;;;;5010927;28;20048;-73
2023/01/28 13:14:27;;;;;;;9.60;4.68;;;4.70;99.90;;;;;;5010865;28;20061;-73
2023/01/28 13:16:53;;;;;;;10.15;5.10;;;4.70;99.90;;;;;;5006037;28;20041;-73
2023/01/28 13:19:18;;;;;;;9.33;4.97;;;4.70;99.90;;;;;;4993126;28;20475;-73
2023/01/28 13:21:46;;;;;;;9.33;4.97;;;4.70;99.90;;;;;;4991875;28;20147;-73
2023/01/28 13:24:14;;;;;;;6.35;3.60;;;4.70;99.90;;;;;;5009636;28;20073;-73
2023/01/28 13:26:50;;;;;;;7.30;4.18;;;4.70;99.90;;;;;;5010201;28;20054;-73
2023/01/28 13:29:24;;;;;;;7.50;3.88;;;4.60;99.90;;;;;;4994736;28;20111;-73
2023/01/28 13:31:58;;;;;;;5.75;3.47;;;4.60;99.90;;;;;;5009561;28;20056;-73
2023/01/28 13:34:31;;;;;;;6.75;3.00;;;4.60;99.90;;;;;;5011326;28;20037;-73
2023/01/28 13:37:14;;;;;;;6.45;3.17;;;4.60;99.90;;;;;;5011370;28;20560;-73
2023/01/28 13:39:47;;;;;;;6.53;3.83;;;4.70;99.90;;;;;;5012137;28;20053;-73